sensor_id;sensor_type;location;lat;lon;timestamp;pressure;altitude;pressure_sealevel;temperature;humidity
33414;BME280;60055;41.884;12.534;2023-09-19T00:00:34;101003.56;;;25.10;60.13
33414;BME280;60055;41.884;12.534;2023-09-19T00:03:01;101000.69;;;25.02;60.65
33414;BME280;60055;41.884;12.534;2023-09-19T00:05:30;101002.81;;;24.98;61.44
33414;BME280;60055;41.884;12.534;2023-09-19T00:07:59;100995.44;;;25.00;61.39
33414;BME280;60055;41.884;12.534;2023-09-19T00:10:26;100987.34;;;25.10;61.41
33414;BME280;60055;41.884;12.534;2023-09-19T00:12:55;100985.50;;;25.20;61.20
33414;BME280;60055;41.884;12.534;2023-09-19T00:15:21;100981.66;;;25.13;60.98
33414;BME280;60055;41.884;12.534;2023-09-19T00:17:47;100990.91;;;25.01;61.25
33414;BME280;60055;41.884;12.534;2023-09-19T00:20:13;100993.31;;;25.04;61.38
33414;BME280;60055;41.884;12.534;2023-09-19T00:22:41;100991.03;;;25.09;61.08
33414;BME280;60055;41.884;12.534;2023-09-19T00:25:09;100996.72;;;24.96;61.66
33414;BME280;60055;41.884;12.534;2023-09-19T00:27:38;100990.03;;;24.90;61.68
33414;BME280;60055;41.884;12.534;2023-09-19T00:30:08;100992.75;;;25.00;61.58
33414;BME280;60055;41.884;12.534;2023-09-19T00:32:40;100975.09;;;25.06;61.05
33414;BME280;60055;41.884;12.534;2023-09-19T00:35:05;100988.78;;;25.04;61.15
33414;BME280;60055;41.884;12.534;2023-09-19T00:37:31;100979.50;;;25.16;60.53
33414;BME280;60055;41.884;12.534;2023-09-19T00:39:56;100971.84;;;25.31;60.55
33414;BME280;60055;41.884;12.534;2023-09-19T00:42:22;100980.91;;;25.39;59.99
33414;BME280;60055;41.884;12.534;2023-09-19T00:44:47;100976.94;;;25.43;59.35
33414;BME280;60055;41.884;12.534;2023-09-19T00:47:16;100969.22;;;25.49;59.06
33414;BME280;60055;41.884;12.534;2023-09-19T00:49:43;100969.13;;;25.50;58.91
33414;BME280;60055;41.884;12.534;2023-09-19T00:52:10;100966.56;;;25.58;58.80
33414;BME280;60055;41.884;12.534;2023-09-19T00:54:36;100958.84;;;25.63;59.13
33414;BME280;60055;41.884;12.534;2023-09-19T00:57:02;100954.44;;;25.62;58.63
33414;BME280;60055;41.884;12.534;2023-09-19T00:59:28;100955.72;;;25.68;58.16
33414;BME280;60055;41.884;12.534;2023-09-19T01:01:56;100961.53;;;25.73;57.80
33414;BME280;60055;41.884;12.534;2023-09-19T01:04:22;100954.81;;;25.77;58.27
33414;BME280;60055;41.884;12.534;2023-09-19T01:06:48;100955.69;;;25.77;57.95
33414;BME280;60055;41.884;12.534;2023-09-19T01:09:19;100963.06;;;25.75;58.25
33414;BME280;60055;41.884;12.534;2023-09-19T01:11:48;100965.69;;;25.67;59.46
33414;BME280;60055;41.884;12.534;2023-09-19T01:14:29;100962.00;;;25.39;62.28
33414;BME280;60055;41.884;12.534;2023-09-19T01:17:20;100965.69;;;25.38;62.81
33414;BME280;60055;41.884;12.534;2023-09-19T01:30:40;100974.81;;;25.09;64.20
33414;BME280;60055;41.884;12.534;2023-09-19T01:33:08;100977.94;;;24.95;65.10
33414;BME280;60055;41.884;12.534;2023-09-19T01:35:37;100977.66;;;25.17;64.03
33414;BME280;60055;41.884;12.534;2023-09-19T01:38:05;100971.00;;;25.21;63.56
33414;BME280;60055;41.884;12.534;2023-09-19T01:40:35;100974.69;;;25.20;64.00
33414;BME280;60055;41.884;12.534;2023-09-19T01:43:17;100985.34;;;25.21;63.94
33414;BME280;60055;41.884;12.534;2023-09-19T01:46:09;100983.06;;;25.36;63.53
33414;BME280;60055;41.884;12.534;2023-09-19T01:48:42;100982.50;;;24.94;64.85
33414;BME280;60055;41.884;12.534;2023-09-19T01:51:14;100984.75;;;24.89;65.59
33414;BME280;60055;41.884;12.534;2023-09-19T01:53:53;100970.56;;;24.97;64.69
33414;BME280;60055;41.884;12.534;2023-09-19T01:56:36;100963.59;;;25.04;64.61
33414;BME280;60055;41.884;12.534;2023-09-19T01:59:12;100961.47;;;25.07;64.89
33414;BME280;60055;41.884;12.534;2023-09-19T02:01:39;100957.91;;;25.16;64.05
33414;BME280;60055;41.884;12.534;2023-09-19T02:04:07;100967.16;;;25.14;63.84
33414;BME280;60055;41.884;12.534;2023-09-19T02:06:32;100972.56;;;25.04;63.88
33414;BME280;60055;41.884;12.534;2023-09-19T02:08:59;100971.81;;;24.92;64.32
33414;BME280;60055;41.884;12.534;2023-09-19T02:11:25;100980.78;;;24.93;64.32
33414;BME280;60055;41.884;12.534;2023-09-19T02:13:50;100982.34;;;24.96;63.91
33414;BME280;60055;41.884;12.534;2023-09-19T02:16:20;100983.63;;;24.91;62.34
33414;BME280;60055;41.884;12.534;2023-09-19T02:18:48;100988.69;;;24.66;63.16
33414;BME280;60055;41.884;12.534;2023-09-19T02:21:15;100991.09;;;24.59;62.53
33414;BME280;60055;41.884;12.534;2023-09-19T02:23:40;100999.03;;;24.61;61.56
33414;BME280;60055;41.884;12.534;2023-09-19T02:26:06;101012.47;;;24.41;59.87
33414;BME280;60055;41.884;12.534;2023-09-19T02:28:31;101022.25;;;24.33;60.72
33414;BME280;60055;41.884;12.534;2023-09-19T02:31:01;101016.91;;;24.12;60.57
33414;BME280;60055;41.884;12.534;2023-09-19T02:33:27;101014.38;;;24.00;60.49
33414;BME280;60055;41.884;12.534;2023-09-19T02:35:57;101009.94;;;23.89;60.78
33414;BME280;60055;41.884;12.534;2023-09-19T02:38:23;101011.19;;;23.85;61.69
33414;BME280;60055;41.884;12.534;2023-09-19T02:40:50;101017.28;;;24.08;61.23
33414;BME280;60055;41.884;12.534;2023-09-19T02:43:16;101006.50;;;23.87;62.32
33414;BME280;60055;41.884;12.534;2023-09-19T02:45:42;101005.59;;;23.98;61.80
33414;BME280;60055;41.884;12.534;2023-09-19T02:48:07;101000.97;;;24.09;61.96
33414;BME280;60055;41.884;12.534;2023-09-19T02:50:33;101010.31;;;24.05;61.81
33414;BME280;60055;41.884;12.534;2023-09-19T02:52:59;101019.25;;;24.06;62.08
33414;BME280;60055;41.884;12.534;2023-09-19T02:55:24;101026.88;;;24.21;62.21
33414;BME280;60055;41.884;12.534;2023-09-19T02:57:52;101021.97;;;24.26;62.55
33414;BME280;60055;41.884;12.534;2023-09-19T03:00:21;101018.72;;;24.12;64.16
33414;BME280;60055;41.884;12.534;2023-09-19T03:02:56;101021.38;;;24.02;64.85
33414;BME280;60055;41.884;12.534;2023-09-19T03:05:23;101019.22;;;23.96;64.95
33414;BME280;60055;41.884;12.534;2023-09-19T03:07:49;101016.22;;;23.69;66.51
33414;BME280;60055;41.884;12.534;2023-09-19T03:10:16;101019.78;;;24.00;65.44
33414;BME280;60055;41.884;12.534;2023-09-19T03:12:42;101024.19;;;24.01;65.37
33414;BME280;60055;41.884;12.534;2023-09-19T03:15:08;101010.53;;;23.92;64.86
33414;BME280;60055;41.884;12.534;2023-09-19T03:17:34;101015.50;;;23.97;64.99
33414;BME280;60055;41.884;12.534;2023-09-19T03:20:00;101008.16;;;24.20;63.87
33414;BME280;60055;41.884;12.534;2023-09-19T03:22:27;101012.84;;;24.07;64.87
33414;BME280;60055;41.884;12.534;2023-09-19T03:24:52;101006.13;;;24.12;64.04
33414;BME280;60055;41.884;12.534;2023-09-19T03:27:19;101008.88;;;24.31;63.21
33414;BME280;60055;41.884;12.534;2023-09-19T03:29:46;101009.19;;;24.38;62.74
33414;BME280;60055;41.884;12.534;2023-09-19T03:32:11;101008.47;;;24.26;62.97
33414;BME280;60055;41.884;12.534;2023-09-19T03:34:39;101012.44;;;24.32;62.71
33414;BME280;60055;41.884;12.534;2023-09-19T03:37:08;101009.25;;;24.17;62.58
33414;BME280;60055;41.884;12.534;2023-09-19T03:39:34;101006.28;;;24.20;63.20
33414;BME280;60055;41.884;12.534;2023-09-19T03:42:00;101007.31;;;24.29;62.98
33414;BME280;60055;41.884;12.534;2023-09-19T03:44:25;101006.75;;;24.05;63.61
33414;BME280;60055;41.884;12.534;2023-09-19T03:46:51;101012.47;;;24.11;63.46
33414;BME280;60055;41.884;12.534;2023-09-19T03:49:16;101002.75;;;24.20;62.90
33414;BME280;60055;41.884;12.534;2023-09-19T03:51:41;101007.63;;;24.35;62.17
33414;BME280;60055;41.884;12.534;2023-09-19T03:54:07;101005.75;;;24.26;62.60
33414;BME280;60055;41.884;12.534;2023-09-19T03:56:33;101015.50;;;24.18;62.51
33414;BME280;60055;41.884;12.534;2023-09-19T03:58:58;101011.59;;;24.31;62.65
33414;BME280;60055;41.884;12.534;2023-09-19T04:01:24;101010.72;;;24.31;62.05
33414;BME280;60055;41.884;12.534;2023-09-19T04:03:50;101002.31;;;24.24;61.72
33414;BME280;60055;41.884;12.534;2023-09-19T04:06:17;100992.97;;;24.28;61.36
33414;BME280;60055;41.884;12.534;2023-09-19T04:08:43;100995.94;;;24.25;60.96
33414;BME280;60055;41.884;12.534;2023-09-19T04:11:09;101006.28;;;24.20;61.28
33414;BME280;60055;41.884;12.534;2023-09-19T04:13:35;101012.53;;;24.21;61.29
33414;BME280;60055;41.884;12.534;2023-09-19T04:16:02;101009.19;;;24.08;61.76
33414;BME280;60055;41.884;12.534;2023-09-19T04:18:29;101021.91;;;23.96;62.22
33414;BME280;60055;41.884;12.534;2023-09-19T04:20:58;101027.72;;;24.12;60.53
33414;BME280;60055;41.884;12.534;2023-09-19T04:23:23;101029.31;;;24.04;60.44
33414;BME280;60055;41.884;12.534;2023-09-19T04:25:48;101031.69;;;23.97;59.58
33414;BME280;60055;41.884;12.534;2023-09-19T04:28:14;101040.97;;;24.04;59.23
33414;BME280;60055;41.884;12.534;2023-09-19T04:30:40;101037.84;;;23.99;58.25
33414;BME280;60055;41.884;12.534;2023-09-19T04:33:06;101036.75;;;24.11;57.99
33414;BME280;60055;41.884;12.534;2023-09-19T04:35:32;101029.41;;;24.13;58.27
33414;BME280;60055;41.884;12.534;2023-09-19T04:37:57;101037.13;;;24.07;58.49
33414;BME280;60055;41.884;12.534;2023-09-19T04:40:23;101043.91;;;24.12;58.46
33414;BME280;60055;41.884;12.534;2023-09-19T04:42:55;101043.34;;;24.18;57.64
33414;BME280;60055;41.884;12.534;2023-09-19T04:45:22;101043.41;;;24.07;57.42
33414;BME280;60055;41.884;12.534;2023-09-19T04:47:47;101044.13;;;24.09;57.47
33414;BME280;60055;41.884;12.534;2023-09-19T04:50:13;101044.41;;;24.06;57.63
33414;BME280;60055;41.884;12.534;2023-09-19T04:52:42;101048.47;;;24.01;58.02
33414;BME280;60055;41.884;12.534;2023-09-19T04:55:18;101044.78;;;24.02;58.06
33414;BME280;60055;41.884;12.534;2023-09-19T04:57:45;101042.69;;;24.05;58.17
33414;BME280;60055;41.884;12.534;2023-09-19T05:00:18;101044.53;;;23.84;56.55
33414;BME280;60055;41.884;12.534;2023-09-19T05:02:50;101048.69;;;23.88;56.44
33414;BME280;60055;41.884;12.534;2023-09-19T05:05:19;101057.00;;;23.75;56.07
33414;BME280;60055;41.884;12.534;2023-09-19T05:07:45;101049.94;;;23.84;54.88
33414;BME280;60055;41.884;12.534;2023-09-19T05:10:11;101058.78;;;23.86;55.10
33414;BME280;60055;41.884;12.534;2023-09-19T05:12:38;101052.25;;;23.88;55.00
33414;BME280;60055;41.884;12.534;2023-09-19T05:15:07;101055.38;;;23.93;54.05
33414;BME280;60055;41.884;12.534;2023-09-19T05:17:33;101054.13;;;23.98;54.29
33414;BME280;60055;41.884;12.534;2023-09-19T05:19:59;101056.13;;;24.16;55.04
33414;BME280;60055;41.884;12.534;2023-09-19T05:23:05;101052.34;;;24.28;53.26
33414;BME280;60055;41.884;12.534;2023-09-19T05:25:35;101056.84;;;24.18;53.26
33414;BME280;60055;41.884;12.534;2023-09-19T05:28:08;101061.59;;;24.26;53.48
33414;BME280;60055;41.884;12.534;2023-09-19T05:30:35;101060.56;;;24.27;53.05
33414;BME280;60055;41.884;12.534;2023-09-19T05:33:08;101055.38;;;24.35;53.65
33414;BME280;60055;41.884;12.534;2023-09-19T05:35:35;101065.03;;;24.37;53.33
33414;BME280;60055;41.884;12.534;2023-09-19T05:38:07;101063.06;;;24.39;53.06
33414;BME280;60055;41.884;12.534;2023-09-19T05:40:38;101059.34;;;24.40;52.38
33414;BME280;60055;41.884;12.534;2023-09-19T05:43:04;101058.38;;;24.41;52.87
33414;BME280;60055;41.884;12.534;2023-09-19T05:45:31;101061.66;;;24.45;52.50
33414;BME280;60055;41.884;12.534;2023-09-19T05:48:07;101050.59;;;24.18;53.55
33414;BME280;60055;41.884;12.534;2023-09-19T05:50:33;101064.56;;;24.23;53.36
33414;BME280;60055;41.884;12.534;2023-09-19T05:52:59;101059.03;;;24.34;53.49
33414;BME280;60055;41.884;12.534;2023-09-19T05:55:24;101059.34;;;24.40;53.37
33414;BME280;60055;41.884;12.534;2023-09-19T05:57:53;101060.25;;;24.51;53.24
33414;BME280;60055;41.884;12.534;2023-09-19T06:00:19;101057.28;;;24.54;52.96
33414;BME280;60055;41.884;12.534;2023-09-19T06:02:55;101051.81;;;24.74;52.29
33414;BME280;60055;41.884;12.534;2023-09-19T06:05:22;101060.06;;;24.73;52.60
33414;BME280;60055;41.884;12.534;2023-09-19T06:07:48;101050.88;;;24.85;52.36
33414;BME280;60055;41.884;12.534;2023-09-19T06:10:16;101053.16;;;24.89;52.58
33414;BME280;60055;41.884;12.534;2023-09-19T06:12:43;101059.56;;;24.98;52.04
33414;BME280;60055;41.884;12.534;2023-09-19T06:15:09;101060.41;;;24.99;52.06
33414;BME280;60055;41.884;12.534;2023-09-19T06:17:40;101070.69;;;24.65;52.61
33414;BME280;60055;41.884;12.534;2023-09-19T06:20:06;101059.50;;;24.79;52.50
33414;BME280;60055;41.884;12.534;2023-09-19T06:22:38;101058.34;;;24.81;52.72
33414;BME280;60055;41.884;12.534;2023-09-19T06:25:04;101058.13;;;24.84;52.99
33414;BME280;60055;41.884;12.534;2023-09-19T06:27:30;101051.59;;;24.87;52.20
33414;BME280;60055;41.884;12.534;2023-09-19T06:29:55;101052.44;;;24.87;52.53
33414;BME280;60055;41.884;12.534;2023-09-19T06:32:27;101053.63;;;25.04;52.29
33414;BME280;60055;41.884;12.534;2023-09-19T06:34:52;101052.03;;;25.02;52.61
33414;BME280;60055;41.884;12.534;2023-09-19T06:37:20;101055.31;;;25.05;52.67
33414;BME280;60055;41.884;12.534;2023-09-19T06:39:46;101051.63;;;25.25;52.25
33414;BME280;60055;41.884;12.534;2023-09-19T06:42:13;101054.22;;;25.27;52.29
33414;BME280;60055;41.884;12.534;2023-09-19T06:44:38;101054.78;;;25.50;51.48
33414;BME280;60055;41.884;12.534;2023-09-19T06:47:04;101056.22;;;25.54;51.70
33414;BME280;60055;41.884;12.534;2023-09-19T06:49:31;101053.34;;;25.46;51.64
33414;BME280;60055;41.884;12.534;2023-09-19T06:51:56;101047.09;;;25.35;51.76
33414;BME280;60055;41.884;12.534;2023-09-19T06:54:22;101050.06;;;25.42;52.00
33414;BME280;60055;41.884;12.534;2023-09-19T06:56:48;101051.53;;;25.56;52.29
33414;BME280;60055;41.884;12.534;2023-09-19T06:59:13;101050.94;;;25.81;51.66
33414;BME280;60055;41.884;12.534;2023-09-19T07:01:40;101048.09;;;25.63;51.12
33414;BME280;60055;41.884;12.534;2023-09-19T07:04:06;101051.06;;;25.99;50.80
33414;BME280;60055;41.884;12.534;2023-09-19T07:06:31;101050.41;;;26.24;49.72
33414;BME280;60055;41.884;12.534;2023-09-19T07:08:57;101059.38;;;26.34;49.27
33414;BME280;60055;41.884;12.534;2023-09-19T07:11:22;101061.97;;;26.53;48.55
33414;BME280;60055;41.884;12.534;2023-09-19T07:13:48;101061.72;;;26.56;47.82
33414;BME280;60055;41.884;12.534;2023-09-19T07:16:14;101061.28;;;26.78;48.07
33414;BME280;60055;41.884;12.534;2023-09-19T07:18:52;101055.34;;;27.02;47.21
33414;BME280;60055;41.884;12.534;2023-09-19T07:21:18;101058.34;;;27.34;46.61
33414;BME280;60055;41.884;12.534;2023-09-19T07:23:43;101056.63;;;27.61;46.22
33414;BME280;60055;41.884;12.534;2023-09-19T07:26:09;101056.84;;;27.93;46.15
33414;BME280;60055;41.884;12.534;2023-09-19T07:28:34;101059.03;;;28.07;45.58
33414;BME280;60055;41.884;12.534;2023-09-19T07:31:02;101056.84;;;28.11;45.34
33414;BME280;60055;41.884;12.534;2023-09-19T07:33:32;101066.94;;;28.26;44.37
33414;BME280;60055;41.884;12.534;2023-09-19T07:35:57;101062.66;;;28.50;44.06
33414;BME280;60055;41.884;12.534;2023-09-19T07:38:23;101067.88;;;28.69;43.26
33414;BME280;60055;41.884;12.534;2023-09-19T07:40:50;101072.38;;;28.94;43.48
33414;BME280;60055;41.884;12.534;2023-09-19T07:43:15;101077.53;;;29.05;42.83
33414;BME280;60055;41.884;12.534;2023-09-19T07:45:40;101085.25;;;29.26;42.44
33414;BME280;60055;41.884;12.534;2023-09-19T07:48:07;101082.91;;;29.47;42.06
33414;BME280;60055;41.884;12.534;2023-09-19T07:50:39;101081.06;;;29.64;42.21
33414;BME280;60055;41.884;12.534;2023-09-19T07:53:05;101089.38;;;29.62;41.98
33414;BME280;60055;41.884;12.534;2023-09-19T07:55:31;101077.66;;;29.86;42.05
33414;BME280;60055;41.884;12.534;2023-09-19T07:57:59;101068.97;;;29.99;41.18
33414;BME280;60055;41.884;12.534;2023-09-19T08:00:24;101078.34;;;30.04;40.94
33414;BME280;60055;41.884;12.534;2023-09-19T08:02:50;101075.63;;;29.96;40.93
33414;BME280;60055;41.884;12.534;2023-09-19T08:05:17;101077.97;;;29.83;41.97
33414;BME280;60055;41.884;12.534;2023-09-19T08:07:46;101076.31;;;29.90;42.44
33414;BME280;60055;41.884;12.534;2023-09-19T08:10:14;101080.50;;;30.25;42.03
33414;BME280;60055;41.884;12.534;2023-09-19T08:12:43;101082.88;;;30.44;40.91
33414;BME280;60055;41.884;12.534;2023-09-19T08:15:16;101089.63;;;30.56;40.66
33414;BME280;60055;41.884;12.534;2023-09-19T08:17:42;101085.59;;;30.83;40.52
33414;BME280;60055;41.884;12.534;2023-09-19T08:20:10;101076.25;;;30.77;40.39
33414;BME280;60055;41.884;12.534;2023-09-19T08:22:53;101084.38;;;31.02;40.09
33414;BME280;60055;41.884;12.534;2023-09-19T08:25:23;101079.69;;;31.10;39.93
33414;BME280;60055;41.884;12.534;2023-09-19T08:27:50;101081.25;;;31.35;40.69
33414;BME280;60055;41.884;12.534;2023-09-19T08:30:17;101076.34;;;31.54;39.80
33414;BME280;60055;41.884;12.534;2023-09-19T08:32:43;101070.56;;;31.57;39.39
33414;BME280;60055;41.884;12.534;2023-09-19T08:35:12;101066.50;;;31.53;39.31
33414;BME280;60055;41.884;12.534;2023-09-19T08:37:37;101063.41;;;31.48;40.30
33414;BME280;60055;41.884;12.534;2023-09-19T08:40:03;101073.09;;;31.58;39.91
33414;BME280;60055;41.884;12.534;2023-09-19T08:42:29;101076.44;;;30.76;42.60
33414;BME280;60055;41.884;12.534;2023-09-19T08:44:55;101077.75;;;31.50;41.19
33414;BME280;60055;41.884;12.534;2023-09-19T08:47:34;101077.31;;;31.38;42.87
33414;BME280;60055;41.884;12.534;2023-09-19T08:50:23;101082.00;;;31.75;42.33
33414;BME280;60055;41.884;12.534;2023-09-19T08:52:52;101073.75;;;31.83;42.17
33414;BME280;60055;41.884;12.534;2023-09-19T08:55:26;101077.13;;;31.39;42.61
33414;BME280;60055;41.884;12.534;2023-09-19T08:58:02;101085.16;;;31.64;42.64
33414;BME280;60055;41.884;12.534;2023-09-19T09:00:28;101086.50;;;31.14;43.48
33414;BME280;60055;41.884;12.534;2023-09-19T09:02:56;101076.22;;;31.24;43.33
33414;BME280;60055;41.884;12.534;2023-09-19T09:05:23;101089.81;;;31.02;43.93
33414;BME280;60055;41.884;12.534;2023-09-19T09:07:49;101083.13;;;31.12;43.73
33414;BME280;60055;41.884;12.534;2023-09-19T09:10:21;101081.88;;;31.23;42.97
33414;BME280;60055;41.884;12.534;2023-09-19T09:12:51;101089.94;;;31.08;43.52
33414;BME280;60055;41.884;12.534;2023-09-19T09:15:19;101081.44;;;31.03;43.65
33414;BME280;60055;41.884;12.534;2023-09-19T09:17:47;101069.03;;;31.23;43.26
33414;BME280;60055;41.884;12.534;2023-09-19T09:20:17;101071.94;;;30.91;44.34
33414;BME280;60055;41.884;12.534;2023-09-19T09:22:54;101069.34;;;31.06;44.16
33414;BME280;60055;41.884;12.534;2023-09-19T09:25:20;101067.53;;;31.21;43.59
33414;BME280;60055;41.884;12.534;2023-09-19T09:28:02;101061.09;;;31.36;44.01
33414;BME280;60055;41.884;12.534;2023-09-19T09:30:34;101060.34;;;30.97;45.33
33414;BME280;60055;41.884;12.534;2023-09-19T09:33:11;101054.81;;;31.36;44.13
33414;BME280;60055;41.884;12.534;2023-09-19T09:35:46;101053.22;;;31.41;43.95
33414;BME280;60055;41.884;12.534;2023-09-19T09:38:12;101053.06;;;31.43;43.51
33414;BME280;60055;41.884;12.534;2023-09-19T09:40:49;101050.59;;;31.03;41.62
33414;BME280;60055;41.884;12.534;2023-09-19T09:43:31;101042.56;;;30.70;42.33
33414;BME280;60055;41.884;12.534;2023-09-19T09:46:14;101041.81;;;30.37;44.34
33414;BME280;60055;41.884;12.534;2023-09-19T09:48:56;101033.56;;;30.07;45.10
33414;BME280;60055;41.884;12.534;2023-09-19T09:51:49;101036.41;;;30.21;45.25
33414;BME280;60055;41.884;12.534;2023-09-19T09:54:28;101033.66;;;30.29;44.28
33414;BME280;60055;41.884;12.534;2023-09-19T09:57:11;101034.16;;;30.41;43.88
33414;BME280;60055;41.884;12.534;2023-09-19T09:59:55;101022.41;;;30.32;44.35
33414;BME280;60055;41.884;12.534;2023-09-19T10:02:27;101025.47;;;30.29;43.72
33414;BME280;60055;41.884;12.534;2023-09-19T10:05:17;101023.06;;;30.51;43.58
33414;BME280;60055;41.884;12.534;2023-09-19T10:07:47;101009.84;;;30.15;44.51
33414;BME280;60055;41.884;12.534;2023-09-19T10:10:35;101017.22;;;30.62;43.65
33414;BME280;60055;41.884;12.534;2023-09-19T10:13:15;101024.03;;;30.58;43.12
33414;BME280;60055;41.884;12.534;2023-09-19T10:15:54;101023.84;;;30.59;42.58
33414;BME280;60055;41.884;12.534;2023-09-19T10:18:26;101021.22;;;30.74;42.47
33414;BME280;60055;41.884;12.534;2023-09-19T10:20:56;101020.16;;;30.83;42.29
33414;BME280;60055;41.884;12.534;2023-09-19T10:23:48;101018.13;;;30.85;42.23
33414;BME280;60055;41.884;12.534;2023-09-19T10:27:17;101011.28;;;30.89;42.33
33414;BME280;60055;41.884;12.534;2023-09-19T10:29:17;100998.91;;;30.78;42.37
33414;BME280;60055;41.884;12.534;2023-09-19T10:31:44;101004.41;;;30.93;42.22
33414;BME280;60055;41.884;12.534;2023-09-19T10:34:14;101002.25;;;30.88;40.48
33414;BME280;60055;41.884;12.534;2023-09-19T10:36:44;101004.59;;;30.61;41.84
33414;BME280;60055;41.884;12.534;2023-09-19T10:39:20;101008.84;;;30.63;42.12
33414;BME280;60055;41.884;12.534;2023-09-19T10:45:04;101005.34;;;30.38;43.27
33414;BME280;60055;41.884;12.534;2023-09-19T10:47:38;101008.31;;;30.68;42.76
33414;BME280;60055;41.884;12.534;2023-09-19T10:50:06;101013.06;;;30.74;42.43
33414;BME280;60055;41.884;12.534;2023-09-19T10:52:31;101002.03;;;30.90;41.87
33414;BME280;60055;41.884;12.534;2023-09-19T10:55:00;100996.69;;;30.74;42.09
33414;BME280;60055;41.884;12.534;2023-09-19T10:57:26;100992.53;;;30.86;42.17
33414;BME280;60055;41.884;12.534;2023-09-19T11:03:16;100995.19;;;31.02;41.70
33414;BME280;60055;41.884;12.534;2023-09-19T11:06:00;100988.72;;;30.95;41.17
33414;BME280;60055;41.884;12.534;2023-09-19T11:08:27;100986.66;;;31.05;40.40
33414;BME280;60055;41.884;12.534;2023-09-19T11:10:52;100987.13;;;31.09;40.48
33414;BME280;60055;41.884;12.534;2023-09-19T11:13:28;100993.63;;;31.08;40.46
33414;BME280;60055;41.884;12.534;2023-09-19T11:24:28;100982.41;;;30.72;41.08
33414;BME280;60055;41.884;12.534;2023-09-19T11:27:15;100979.69;;;30.95;40.91
33414;BME280;60055;41.884;12.534;2023-09-19T11:29:42;100985.16;;;30.95;40.75
33414;BME280;60055;41.884;12.534;2023-09-19T11:32:08;100984.94;;;31.04;39.80
33414;BME280;60055;41.884;12.534;2023-09-19T11:34:41;100985.31;;;31.01;39.34
33414;BME280;60055;41.884;12.534;2023-09-19T11:39:39;100979.34;;;30.98;39.65
33414;BME280;60055;41.884;12.534;2023-09-19T11:42:45;100977.22;;;30.85;39.36
33414;BME280;60055;41.884;12.534;2023-09-19T11:48:12;100980.41;;;31.19;39.06
33414;BME280;60055;41.884;12.534;2023-09-19T11:50:42;100980.31;;;31.27;39.28
33414;BME280;60055;41.884;12.534;2023-09-19T11:53:11;100976.09;;;31.25;39.59
33414;BME280;60055;41.884;12.534;2023-09-19T11:55:38;100967.03;;;31.24;40.36
33414;BME280;60055;41.884;12.534;2023-09-19T11:58:04;100964.56;;;31.15;40.49
33414;BME280;60055;41.884;12.534;2023-09-19T12:00:32;100951.94;;;31.14;40.04
33414;BME280;60055;41.884;12.534;2023-09-19T12:03:02;100953.41;;;31.24;39.72
33414;BME280;60055;41.884;12.534;2023-09-19T12:05:33;100955.69;;;31.35;40.04
33414;BME280;60055;41.884;12.534;2023-09-19T12:07:58;100958.56;;;31.19;39.84
33414;BME280;60055;41.884;12.534;2023-09-19T12:10:24;100954.16;;;31.18;40.18
33414;BME280;60055;41.884;12.534;2023-09-19T12:12:50;100951.69;;;31.23;38.95
33414;BME280;60055;41.884;12.534;2023-09-19T12:15:27;100951.47;;;31.10;40.43
33414;BME280;60055;41.884;12.534;2023-09-19T12:17:59;100959.38;;;30.74;41.02
33414;BME280;60055;41.884;12.534;2023-09-19T12:20:24;100949.97;;;30.77;40.86
33414;BME280;60055;41.884;12.534;2023-09-19T12:22:50;100953.97;;;30.66;42.53
33414;BME280;60055;41.884;12.534;2023-09-19T12:25:15;100951.19;;;30.74;42.66
33414;BME280;60055;41.884;12.534;2023-09-19T12:27:49;100953.28;;;30.95;42.03
33414;BME280;60055;41.884;12.534;2023-09-19T12:30:18;100951.41;;;30.96;41.21
33414;BME280;60055;41.884;12.534;2023-09-19T12:32:45;100957.03;;;30.94;41.36
33414;BME280;60055;41.884;12.534;2023-09-19T12:35:32;100953.59;;;31.23;41.04
33414;BME280;60055;41.884;12.534;2023-09-19T12:38:02;100966.19;;;31.24;40.98
33414;BME280;60055;41.884;12.534;2023-09-19T12:40:29;100963.41;;;31.32;40.53
33414;BME280;60055;41.884;12.534;2023-09-19T12:42:58;100964.75;;;31.13;41.71
33414;BME280;60055;41.884;12.534;2023-09-19T12:45:25;100954.13;;;30.96;41.41
33414;BME280;60055;41.884;12.534;2023-09-19T12:51:03;100946.38;;;31.53;39.89
33414;BME280;60055;41.884;12.534;2023-09-19T12:53:32;100943.63;;;31.53;40.95
33414;BME280;60055;41.884;12.534;2023-09-19T12:55:59;100947.81;;;31.63;41.08
33414;BME280;60055;41.884;12.534;2023-09-19T12:58:31;100941.97;;;31.81;40.40
33414;BME280;60055;41.884;12.534;2023-09-19T13:00:57;100947.88;;;31.55;40.41
33414;BME280;60055;41.884;12.534;2023-09-19T13:05:58;100942.06;;;31.73;40.11
33414;BME280;60055;41.884;12.534;2023-09-19T13:08:27;100935.78;;;31.87;39.41
33414;BME280;60055;41.884;12.534;2023-09-19T13:11:11;100948.56;;;31.86;40.01
33414;BME280;60055;41.884;12.534;2023-09-19T13:14:25;100939.31;;;31.87;40.47
33414;BME280;60055;41.884;12.534;2023-09-19T13:25:01;100929.03;;;31.00;40.40
33414;BME280;60055;41.884;12.534;2023-09-19T13:27:29;100925.91;;;30.58;41.85
33414;BME280;60055;41.884;12.534;2023-09-19T13:29:54;100926.88;;;30.34;42.93
33414;BME280;60055;41.884;12.534;2023-09-19T13:32:19;100930.56;;;30.02;43.37
33414;BME280;60055;41.884;12.534;2023-09-19T13:34:45;100931.53;;;30.17;43.09
33414;BME280;60055;41.884;12.534;2023-09-19T13:37:11;100927.03;;;30.32;43.08